BBC Orinoco — V2DM2 — position and weather

sailwx.info

Track history (hours):
 
Tides and Currents Weather Stations Pressure Air Temp Water Temp Dewpoint Dewpoint Depression Visibility Wind Speed Wind Dir Waves Ship Positions

BBC Orinoco

Last reported at 2016-Aug-06 04:34 UTC. Time now 2016-Aug-27 22:14 UTC.
Position S 24°10' W 045°14'.
Warning: this ship's position is 21 days out of date.

Length 143 m; draft 6.1 m.

Type: Ship. MMSI: 305255000.

Date/timePositionNaut miles runAvg speedWind from/ knotsBaromVisibWave heightAir tempDewpointWater temp
2016-Aug-06 04:34S 24°10' W 045°14'1111.1
2016-Aug-06 03:33S 24°13' W 045°26'1111.0
2016-Aug-06 02:33S 24°16' W 045°38'1111.0
2016-Aug-06 01:33S 24°17' W 045°50'3210.8
2016-Aug-05 22:33S 23°60' W 046°20'4 0.2
2016-Aug-05 04:17S 23°56' W 046°20'4 0.1
2016-Aug-04 00:32S 23°58' W 046°18'6 6.2
2016-Aug-03 23:33S 24°04' W 046°17'6 5.7
2016-Aug-03 22:33S 24°09' W 046°14'0 0.1
2016-Aug-03 21:33S 24°09' W 046°14'0 0.0
2016-Aug-03 20:32S 24°09' W 046°14'0 0.0
2016-Aug-03 19:26S 24°09' W 046°14'0 0.0
2016-Aug-03 18:31S 24°09' W 046°14'0 0.0
2016-Aug-03 17:31S 24°09' W 046°14'0 0.0
2016-Aug-03 16:30S 24°09' W 046°14'0 0.0
2016-Aug-03 15:30S 24°09' W 046°14'0 0.0
2016-Aug-03 14:33S 24°09' W 046°14'0 0.0
2016-Aug-03 13:29S 24°09' W 046°14'0 0.0
2016-Aug-03 12:30S 24°09' W 046°14'0 0.0
2016-Aug-03 11:28S 24°09' W 046°14'0 0.0
2016-Aug-03 10:28S 24°09' W 046°14'0 0.0
2016-Aug-03 09:33S 24°09' W 046°14'0 0.0
2016-Aug-03 08:33S 24°09' W 046°14'0 0.0
2016-Aug-03 07:30S 24°09' W 046°14'0 0.0
2016-Aug-03 06:32S 24°09' W 046°14'0 0.0
2016-Aug-03 04:31S 24°09' W 046°14'0 0.0
2016-Aug-03 03:31S 24°09' W 046°14'0 0.0
2016-Aug-03 02:33S 24°09' W 046°14'0 0.0
2016-Aug-03 01:33S 24°09' W 046°14'0 0.0
2016-Aug-03 00:29S 24°09' W 046°14'0 0.0
2016-Aug-02 23:26S 24°09' W 046°14'0 0.0
2016-Aug-02 22:29S 24°09' W 046°14'0 0.0
2016-Aug-02 21:25S 24°09' W 046°14'0 0.0
2016-Aug-02 20:31S 24°09' W 046°14'0 0.0
2016-Aug-02 19:06S 24°09' W 046°14'0 0.0
2016-Aug-02 18:33S 24°09' W 046°14'0 0.0
2016-Aug-02 17:32S 24°09' W 046°14'0 0.0
2016-Aug-02 16:17S 24°09' W 046°14'0 0.0
2016-Aug-02 15:32S 24°09' W 046°14'0 0.0
2016-Aug-02 14:31S 24°09' W 046°14'3 2.8
2016-Aug-02 13:33S 24°08' W 046°11'  
Track history (hours):
 
Tides and Currents Weather Stations Pressure Air Temp Water Temp Dewpoint Dewpoint Depression Visibility Wind Speed Wind Dir Waves Ship Positions

BBC Orinoco

Last reported at 2016-Aug-06 04:34 UTC. Time now 2016-Aug-27 22:14 UTC.
Position S 24°10' W 045°14'.
Warning: this ship's position is 21 days out of date.

Length 143 m; draft 6.1 m.

Type: Ship. MMSI: 305255000.

Date/timePositionNaut miles runAvg speedWind from/ knotsBaromVisibWave heightAir tempDewpointWater temp
2016-Aug-06 04:34S 24°10' W 045°14'1111.1
2016-Aug-06 03:33S 24°13' W 045°26'1111.0
2016-Aug-06 02:33S 24°16' W 045°38'1111.0
2016-Aug-06 01:33S 24°17' W 045°50'3210.8
2016-Aug-05 22:33S 23°60' W 046°20'4 0.2
2016-Aug-05 04:17S 23°56' W 046°20'4 0.1
2016-Aug-04 00:32S 23°58' W 046°18'6 6.2
2016-Aug-03 23:33S 24°04' W 046°17'6 5.7
2016-Aug-03 22:33S 24°09' W 046°14'0 0.1
2016-Aug-03 21:33S 24°09' W 046°14'0 0.0
2016-Aug-03 20:32S 24°09' W 046°14'0 0.0
2016-Aug-03 19:26S 24°09' W 046°14'0 0.0
2016-Aug-03 18:31S 24°09' W 046°14'0 0.0
2016-Aug-03 17:31S 24°09' W 046°14'0 0.0
2016-Aug-03 16:30S 24°09' W 046°14'0 0.0
2016-Aug-03 15:30S 24°09' W 046°14'0 0.0
2016-Aug-03 14:33S 24°09' W 046°14'0 0.0
2016-Aug-03 13:29S 24°09' W 046°14'0 0.0
2016-Aug-03 12:30S 24°09' W 046°14'0 0.0
2016-Aug-03 11:28S 24°09' W 046°14'0 0.0
2016-Aug-03 10:28S 24°09' W 046°14'0 0.0
2016-Aug-03 09:33S 24°09' W 046°14'0 0.0
2016-Aug-03 08:33S 24°09' W 046°14'0 0.0
2016-Aug-03 07:30S 24°09' W 046°14'0 0.0
2016-Aug-03 06:32S 24°09' W 046°14'0 0.0
2016-Aug-03 04:31S 24°09' W 046°14'0 0.0
2016-Aug-03 03:31S 24°09' W 046°14'0 0.0
2016-Aug-03 02:33S 24°09' W 046°14'0 0.0
2016-Aug-03 01:33S 24°09' W 046°14'0 0.0
2016-Aug-03 00:29S 24°09' W 046°14'0 0.0
2016-Aug-02 23:26S 24°09' W 046°14'0 0.0
2016-Aug-02 22:29S 24°09' W 046°14'0 0.0
2016-Aug-02 21:25S 24°09' W 046°14'0 0.0
2016-Aug-02 20:31S 24°09' W 046°14'0 0.0
2016-Aug-02 19:06S 24°09' W 046°14'0 0.0
2016-Aug-02 18:33S 24°09' W 046°14'0 0.0
2016-Aug-02 17:32S 24°09' W 046°14'0 0.0
2016-Aug-02 16:17S 24°09' W 046°14'0 0.0
2016-Aug-02 15:32S 24°09' W 046°14'0 0.0
2016-Aug-02 14:31S 24°09' W 046°14'3 2.8
2016-Aug-02 13:33S 24°08' W 046°11'  

Dump ship's entire track history